createdAt,value
2018-03-30T00:01:20.561Z,11.80
2018-03-30T00:03:48.870Z,5.70
2018-03-30T00:06:17.096Z,6.00
2018-03-30T00:08:45.362Z,9.07
2018-03-30T00:11:14.353Z,8.60
2018-03-30T00:13:43.354Z,6.47
2018-03-30T00:16:12.381Z,5.70
2018-03-30T00:18:40.983Z,8.33
2018-03-30T00:21:09.365Z,5.30
2018-03-30T00:23:38.136Z,6.03
2018-03-30T00:26:06.481Z,6.00
2018-03-30T00:28:35.496Z,6.43
2018-03-30T00:31:03.845Z,12.30
2018-03-30T00:33:34.029Z,8.30
2018-03-30T00:36:02.409Z,12.83
2018-03-30T00:38:32.089Z,10.37
2018-03-30T00:41:00.433Z,8.70
2018-03-30T00:43:29.436Z,15.73
2018-03-30T00:45:58.765Z,13.30
2018-03-30T00:48:27.067Z,10.40
2018-03-30T00:50:55.443Z,13.20
2018-03-30T00:53:35.762Z,10.10
2018-03-30T00:56:04.183Z,12.20
2018-03-30T00:58:34.432Z,9.00
2018-03-30T01:01:02.892Z,8.63
2018-03-30T01:03:31.170Z,7.50
2018-03-30T01:05:59.541Z,5.40
2018-03-30T01:08:27.945Z,5.17
2018-03-30T01:10:56.612Z,5.53
2018-03-30T01:13:24.994Z,11.43
2018-03-30T01:15:53.392Z,9.90
2018-03-30T01:18:21.761Z,13.97
2018-03-30T01:20:51.065Z,15.10
2018-03-30T01:23:19.821Z,11.17
2018-03-30T01:25:48.512Z,10.90
2018-03-30T01:28:16.932Z,9.37
2018-03-30T01:30:46.124Z,9.57
2018-03-30T01:33:14.497Z,8.03
2018-03-30T01:35:42.728Z,9.90
2018-03-30T01:38:10.995Z,10.03
2018-03-30T01:40:39.237Z,12.93
2018-03-30T01:43:07.682Z,6.73
2018-03-30T01:45:36.469Z,6.50
2018-03-30T01:48:04.765Z,6.63
2018-03-30T01:50:33.235Z,9.83
2018-03-30T01:53:01.576Z,7.27
2018-03-30T01:55:30.573Z,8.83
2018-03-30T01:58:02.001Z,9.73
2018-03-30T02:00:30.992Z,9.87
2018-03-30T02:02:59.996Z,8.60
2018-03-30T02:05:29.330Z,9.10
2018-03-30T02:07:57.935Z,9.63
2018-03-30T02:10:26.168Z,8.00
2018-03-30T02:12:54.468Z,8.80
2018-03-30T02:15:23.688Z,8.90
2018-03-30T02:17:51.926Z,8.20
2018-03-30T02:20:20.243Z,7.97
2018-03-30T02:22:48.600Z,12.00
2018-03-30T02:25:16.828Z,8.97
2018-03-30T02:27:45.664Z,8.80
2018-03-30T02:30:13.909Z,8.70
2018-03-30T02:32:42.241Z,9.50
2018-03-30T02:35:10.482Z,8.70
2018-03-30T02:37:38.829Z,8.23
2018-03-30T02:40:07.994Z,9.47
2018-03-30T02:42:36.270Z,8.10
2018-03-30T02:45:04.497Z,9.47
2018-03-30T02:47:32.722Z,9.63
2018-03-30T02:50:01.101Z,9.63
2018-03-30T02:52:29.328Z,9.20
2018-03-30T02:54:57.565Z,10.53
2018-03-30T02:57:25.816Z,9.57
2018-03-30T02:59:54.299Z,9.10
2018-03-30T03:02:22.524Z,13.13
2018-03-30T03:04:50.789Z,8.90
2018-03-30T03:07:19.222Z,11.93
2018-03-30T03:09:47.497Z,8.67
2018-03-30T03:12:16.134Z,10.30
2018-03-30T03:14:44.688Z,14.07
2018-03-30T03:17:12.940Z,9.73
2018-03-30T03:19:41.200Z,11.03
2018-03-30T03:22:09.437Z,7.97
2018-03-30T03:24:37.664Z,9.90
2018-03-30T03:27:05.917Z,10.13
2018-03-30T03:29:34.161Z,9.83
2018-03-30T03:32:02.396Z,10.97
2018-03-30T03:34:30.944Z,8.57
2018-03-30T03:36:59.981Z,8.60
2018-03-30T03:39:28.209Z,8.60
2018-03-30T03:41:56.469Z,9.07
2018-03-30T03:44:24.730Z,7.23
2018-03-30T03:46:52.974Z,7.97
2018-03-30T03:49:21.261Z,9.50
2018-03-30T03:51:49.489Z,8.10
2018-03-30T03:54:17.721Z,8.03
2018-03-30T03:56:46.084Z,8.70
2018-03-30T03:59:14.460Z,7.73
2018-03-30T04:01:42.761Z,10.63
2018-03-30T04:04:11.024Z,7.30
2018-03-30T04:06:39.259Z,8.97
2018-03-30T04:09:08.265Z,8.13
2018-03-30T04:11:36.548Z,9.53
2018-03-30T04:14:05.005Z,8.77
2018-03-30T04:16:33.237Z,7.57
2018-03-30T04:19:02.127Z,8.13
2018-03-30T04:21:30.357Z,8.33
2018-03-30T04:23:58.582Z,9.00
2018-03-30T04:26:26.840Z,8.30
2018-03-30T04:28:55.073Z,9.67
2018-03-30T04:31:23.301Z,10.23
2018-03-30T04:33:51.557Z,7.90
2018-03-30T04:36:19.845Z,7.70
2018-03-30T04:38:48.104Z,8.00
2018-03-30T04:41:16.613Z,9.03
2018-03-30T04:43:44.851Z,11.90
2018-03-30T04:46:13.081Z,11.10
2018-03-30T04:48:41.340Z,10.83
2018-03-30T04:51:09.572Z,9.57
2018-03-30T04:53:37.893Z,11.10
2018-03-30T04:56:06.149Z,9.27
2018-03-30T04:58:34.380Z,9.13
2018-03-30T05:01:02.616Z,9.13
2018-03-30T05:03:31.105Z,11.73
2018-03-30T05:05:59.337Z,9.90
2018-03-30T05:08:27.572Z,11.67
2018-03-30T05:10:55.832Z,13.03
2018-03-30T05:13:24.067Z,9.80
2018-03-30T05:15:52.620Z,12.10
2018-03-30T05:18:20.884Z,10.60
2018-03-30T05:20:49.117Z,16.43
2018-03-30T05:23:18.116Z,10.70
2018-03-30T05:25:46.828Z,9.23
2018-03-30T05:28:15.058Z,9.70
2018-03-30T05:30:43.295Z,9.60
2018-03-30T05:33:11.545Z,11.97
2018-03-30T05:35:39.778Z,9.40
2018-03-30T05:38:08.015Z,11.33
2018-03-30T05:40:36.280Z,12.27
2018-03-30T05:43:04.512Z,9.53
2018-03-30T05:45:33.508Z,11.03
2018-03-30T05:48:02.716Z,12.10
2018-03-30T05:50:30.958Z,12.67
2018-03-30T05:52:59.204Z,10.47
2018-03-30T05:55:27.464Z,11.83
2018-03-30T05:57:55.709Z,11.07
2018-03-30T06:00:24.888Z,11.37
2018-03-30T06:02:53.144Z,14.07
2018-03-30T06:05:21.461Z,10.63
2018-03-30T06:07:50.621Z,14.10
2018-03-30T06:10:18.925Z,12.13
2018-03-30T06:12:47.169Z,12.20
2018-03-30T06:15:15.557Z,13.90
2018-03-30T06:17:43.820Z,11.83
2018-03-30T06:20:15.036Z,10.93
2018-03-30T06:22:43.272Z,11.07
2018-03-30T06:25:11.524Z,10.83
2018-03-30T06:27:39.764Z,11.40
2018-03-30T06:30:08.009Z,11.90
2018-03-30T06:32:36.604Z,11.80
2018-03-30T06:35:05.129Z,12.70
2018-03-30T06:37:33.469Z,11.33
2018-03-30T06:40:02.500Z,10.20
2018-03-30T06:42:30.747Z,12.13
2018-03-30T06:44:59.881Z,14.70
2018-03-30T06:47:28.153Z,12.23
2018-03-30T06:49:56.451Z,12.50
2018-03-30T06:52:24.641Z,12.33
2018-03-30T06:54:53.389Z,12.77
2018-03-30T06:57:21.628Z,14.20
2018-03-30T06:59:49.873Z,12.50
2018-03-30T07:02:18.141Z,11.70
2018-03-30T07:04:46.384Z,11.50
2018-03-30T07:07:14.633Z,12.03
2018-03-30T07:09:43.665Z,11.13
2018-03-30T07:12:11.904Z,14.27
2018-03-30T07:14:40.153Z,13.07
2018-03-30T07:17:09.720Z,11.47
2018-03-30T07:19:37.965Z,11.73
2018-03-30T07:22:06.413Z,11.40
2018-03-30T07:24:34.681Z,13.70
2018-03-30T07:27:02.936Z,13.80
2018-03-30T07:29:31.183Z,12.50
2018-03-30T07:31:59.696Z,13.57
2018-03-30T07:34:27.940Z,12.30
2018-03-30T07:36:56.177Z,12.17
2018-03-30T07:39:24.536Z,18.53
2018-03-30T07:41:52.748Z,12.57
2018-03-30T07:44:21.001Z,13.40
2018-03-30T07:46:49.267Z,12.43
2018-03-30T07:49:17.509Z,13.13
2018-03-30T07:51:45.756Z,13.10
2018-03-30T07:54:14.780Z,12.57
2018-03-30T07:56:43.033Z,13.03
2018-03-30T07:59:11.280Z,12.70
2018-03-30T08:01:39.629Z,12.50
2018-03-30T08:04:07.927Z,12.80
2018-03-30T08:06:36.166Z,12.87
2018-03-30T08:09:04.522Z,15.73
2018-03-30T08:11:32.711Z,15.73
2018-03-30T08:14:00.960Z,13.17
2018-03-30T08:16:29.224Z,14.37
2018-03-30T08:18:57.472Z,13.53
2018-03-30T08:21:25.725Z,14.33
2018-03-30T08:23:54.121Z,16.70
2018-03-30T08:26:22.368Z,15.07
2018-03-30T08:28:50.737Z,15.83
2018-03-30T08:31:18.993Z,14.50
2018-03-30T08:33:47.239Z,14.47
2018-03-30T08:36:15.480Z,15.50
2018-03-30T08:38:43.936Z,15.87
2018-03-30T08:41:13.661Z,16.23
2018-03-30T08:43:42.814Z,14.87
2018-03-30T08:46:11.155Z,17.07
2018-03-30T08:48:39.409Z,15.40
2018-03-30T08:51:08.440Z,15.83
2018-03-30T08:53:36.805Z,17.07
2018-03-30T08:56:05.048Z,19.00
2018-03-30T08:58:33.290Z,16.47
2018-03-30T09:01:01.556Z,17.80
2018-03-30T09:03:29.801Z,16.37
2018-03-30T09:05:58.040Z,18.73
2018-03-30T09:08:26.805Z,17.83
2018-03-30T09:10:55.053Z,18.73
2018-03-30T09:13:23.719Z,20.23
2018-03-30T09:15:52.025Z,17.70
2018-03-30T09:18:20.272Z,18.07
2018-03-30T09:20:49.428Z,19.37
2018-03-30T09:23:17.685Z,17.60
2018-03-30T09:25:45.931Z,18.50
2018-03-30T09:28:14.192Z,18.67
2018-03-30T09:30:42.719Z,20.63
2018-03-30T09:33:16.534Z,18.53
2018-03-30T09:35:44.801Z,17.00
2018-03-30T09:38:13.049Z,16.93
2018-03-30T09:40:41.293Z,18.30
2018-03-30T09:43:10.333Z,19.10
2018-03-30T09:45:38.624Z,19.53
2018-03-30T09:48:06.876Z,17.80
2018-03-30T09:50:35.192Z,18.13
2018-03-30T09:53:03.432Z,17.57
2018-03-30T09:55:31.694Z,16.30
2018-03-30T09:58:00.173Z,17.00
2018-03-30T10:00:29.184Z,17.00
2018-03-30T10:02:57.445Z,17.87
2018-03-30T10:05:25.980Z,15.77
2018-03-30T10:07:54.302Z,17.83
2018-03-30T10:10:23.310Z,16.80
2018-03-30T10:12:51.722Z,15.67
2018-03-30T10:15:19.968Z,16.03
2018-03-30T10:17:48.217Z,15.80
2018-03-30T10:20:16.672Z,16.30
2018-03-30T10:22:45.049Z,14.10
2018-03-30T10:25:13.283Z,15.27
2018-03-30T10:27:41.681Z,14.13
2018-03-30T10:30:09.935Z,12.50
2018-03-30T10:32:38.181Z,11.50
2018-03-30T10:35:06.825Z,9.10
2018-03-30T10:37:35.065Z,8.83
2018-03-30T10:40:03.340Z,8.10
2018-03-30T10:42:31.613Z,7.50
2018-03-30T10:45:00.620Z,7.47
2018-03-30T10:47:28.852Z,8.90
2018-03-30T10:49:57.264Z,8.33
2018-03-30T10:52:25.472Z,8.83
2018-03-30T10:54:53.808Z,7.50
2018-03-30T10:57:22.949Z,6.70
2018-03-30T10:59:51.149Z,7.50
2018-03-30T11:02:19.388Z,6.83
2018-03-30T11:04:49.036Z,8.20
2018-03-30T11:07:17.413Z,8.43
2018-03-30T11:09:45.636Z,7.90
2018-03-30T11:12:14.660Z,8.33
2018-03-30T11:14:42.906Z,6.63
2018-03-30T11:17:11.384Z,6.27
2018-03-30T11:19:41.769Z,5.93
2018-03-30T11:22:10.313Z,5.53
2018-03-30T11:24:38.597Z,5.23
2018-03-30T11:27:06.844Z,5.13
2018-03-30T11:29:35.076Z,4.70
2018-03-30T11:32:03.314Z,5.47
2018-03-30T11:34:31.572Z,5.30
2018-03-30T11:37:00.573Z,4.30
2018-03-30T11:39:29.028Z,3.80
2018-03-30T11:41:57.469Z,6.13
2018-03-30T11:44:25.711Z,3.90
2018-03-30T11:46:54.717Z,4.63
2018-03-30T11:49:22.985Z,6.13
2018-03-30T11:51:55.196Z,3.93
2018-03-30T11:54:23.426Z,3.40
2018-03-30T11:56:51.684Z,3.77
2018-03-30T11:59:21.313Z,4.27
2018-03-30T12:01:49.544Z,3.57
2018-03-30T12:04:17.854Z,3.40
2018-03-30T12:06:46.092Z,4.57
2018-03-30T12:09:14.329Z,4.20
2018-03-30T12:11:42.588Z,4.23
2018-03-30T12:14:10.829Z,3.93
2018-03-30T12:16:39.076Z,4.20
2018-03-30T12:19:07.334Z,4.97
2018-03-30T12:21:35.581Z,3.90
2018-03-30T12:24:03.819Z,4.40
2018-03-30T12:26:32.370Z,4.90
2018-03-30T12:29:00.663Z,3.97
2018-03-30T12:31:28.904Z,4.03
2018-03-30T12:33:57.932Z,4.00
2018-03-30T12:36:26.169Z,6.30
2018-03-30T12:38:54.510Z,4.17
2018-03-30T12:41:22.750Z,3.47
2018-03-30T12:43:50.992Z,3.67
2018-03-30T12:46:19.243Z,3.27
2018-03-30T12:48:47.557Z,4.07
2018-03-30T12:51:16.549Z,4.30
2018-03-30T12:53:45.554Z,3.43
2018-03-30T12:56:13.813Z,3.47
2018-03-30T12:58:42.049Z,3.20
2018-03-30T13:01:10.298Z,3.20
2018-03-30T13:03:38.548Z,10.00
2018-03-30T13:06:06.794Z,3.00
2018-03-30T13:08:35.036Z,12.20
2018-03-30T13:11:03.377Z,3.53
2018-03-30T13:13:31.617Z,2.70
2018-03-30T13:15:59.845Z,2.70
2018-03-30T13:18:28.096Z,2.60
2018-03-30T13:20:57.105Z,7.53
2018-03-30T13:23:26.104Z,3.40
2018-03-30T13:25:54.380Z,2.90
2018-03-30T13:28:22.612Z,2.13
2018-03-30T13:30:50.920Z,2.47
2018-03-30T13:33:20.272Z,2.50
2018-03-30T13:35:48.561Z,2.13
2018-03-30T13:38:16.941Z,3.53
2018-03-30T13:40:45.196Z,5.63
2018-03-30T13:43:13.432Z,3.07
2018-03-30T13:45:42.432Z,2.40
2018-03-30T13:48:11.457Z,2.20
2018-03-30T13:51:02.711Z,3.20
2018-03-30T13:53:36.943Z,10.33
2018-03-30T13:56:11.924Z,4.03
2018-03-30T13:58:43.342Z,2.50
2018-03-30T14:01:12.340Z,2.57
2018-03-30T14:03:44.748Z,2.60
2018-03-30T14:06:16.649Z,2.50
2018-03-30T14:09:01.681Z,6.17
2018-03-30T14:11:31.690Z,2.23
2018-03-30T14:13:59.922Z,1.73
2018-03-30T14:16:36.121Z,2.50
2018-03-30T14:19:09.362Z,1.80
2018-03-30T14:24:36.865Z,1.63
2018-03-30T14:27:09.784Z,3.27
2018-03-30T14:29:38.025Z,2.00
2018-03-30T14:32:07.799Z,1.73
2018-03-30T14:34:37.187Z,1.50
2018-03-30T14:37:20.250Z,1.50
2018-03-30T14:39:53.346Z,1.70
2018-03-30T14:42:32.332Z,1.43
2018-03-30T14:45:09.712Z,1.77
2018-03-30T14:47:38.759Z,1.77
2018-03-30T14:50:11.017Z,1.87
2018-03-30T14:52:45.167Z,2.37
2018-03-30T14:58:41.160Z,1.40
2018-03-30T15:01:28.161Z,2.17
2018-03-30T15:03:56.404Z,1.33
2018-03-30T15:06:32.496Z,4.90
2018-03-30T15:09:06.624Z,2.70
2018-03-30T15:11:53.257Z,2.00
2018-03-30T15:14:22.217Z,2.33
2018-03-30T15:17:14.176Z,1.33
2018-03-30T15:19:46.777Z,3.40
2018-03-30T15:22:23.620Z,2.60
2018-03-30T15:24:58.357Z,1.13
2018-03-30T15:27:28.715Z,1.10
2018-03-30T15:30:17.197Z,1.10
2018-03-30T15:32:58.372Z,1.27
2018-03-30T15:35:44.428Z,2.30
2018-03-30T15:38:12.701Z,1.83
2018-03-30T15:40:40.939Z,3.93
2018-03-30T15:43:25.005Z,6.27
2018-03-30T15:46:13.567Z,2.40
2018-03-30T15:48:41.877Z,1.47
2018-03-30T15:51:13.997Z,3.27
2018-03-30T15:53:41.741Z,1.83
2018-03-30T15:56:10.722Z,1.67
2018-03-30T15:58:38.965Z,1.20
2018-03-30T16:01:07.977Z,4.07
2018-03-30T16:03:36.233Z,2.60
2018-03-30T16:06:04.477Z,4.10
2018-03-30T16:08:32.709Z,1.50
2018-03-30T16:13:56.860Z,4.70
2018-03-30T16:16:25.121Z,1.97
2018-03-30T16:18:55.777Z,1.40
2018-03-30T16:21:23.597Z,1.70
2018-03-30T16:23:51.367Z,4.80
2018-03-30T16:26:19.109Z,2.60
2018-03-30T16:28:47.292Z,1.87
2018-03-30T16:31:15.097Z,2.70
2018-03-30T16:33:42.844Z,1.60
2018-03-30T16:36:10.585Z,1.90
2018-03-30T16:38:38.349Z,1.70
2018-03-30T16:41:06.093Z,4.20
2018-03-30T16:43:33.849Z,5.53
2018-03-30T16:46:01.616Z,1.50
2018-03-30T16:48:29.360Z,1.40
2018-03-30T16:50:57.112Z,9.07
2018-03-30T16:53:24.937Z,4.77
2018-03-30T16:55:52.680Z,1.60
2018-03-30T16:58:20.636Z,4.10
2018-03-30T17:00:48.447Z,1.67
2018-03-30T17:03:16.196Z,2.90
2018-03-30T17:05:44.079Z,3.17
2018-03-30T17:08:11.844Z,5.63
2018-03-30T17:10:39.597Z,2.10
2018-03-30T17:13:07.340Z,2.30
2018-03-30T17:15:35.349Z,3.37
2018-03-30T17:18:03.084Z,2.10
2018-03-30T17:20:30.845Z,1.77
2018-03-30T17:22:59.381Z,1.83
2018-03-30T17:25:27.121Z,2.77
2018-03-30T17:27:55.008Z,1.80
2018-03-30T17:30:23.016Z,1.70
2018-03-30T17:32:50.753Z,2.00
2018-03-30T17:35:18.500Z,3.47
2018-03-30T17:37:46.584Z,4.30
2018-03-30T17:40:14.399Z,5.00
2018-03-30T17:42:42.128Z,2.10
2018-03-30T17:45:09.893Z,2.00
2018-03-30T17:47:37.641Z,2.30
2018-03-30T17:50:05.388Z,4.73
2018-03-30T17:52:33.176Z,2.00
2018-03-30T17:55:00.918Z,2.00
2018-03-30T17:57:28.656Z,2.53
2018-03-30T17:59:56.877Z,2.60
2018-03-30T18:02:24.846Z,3.33
2018-03-30T18:04:52.577Z,5.40
2018-03-30T18:07:20.341Z,4.17
2018-03-30T18:09:48.084Z,3.33
2018-03-30T18:12:16.621Z,10.30
2018-03-30T18:14:44.386Z,6.33
2018-03-30T18:17:12.108Z,4.53
2018-03-30T18:19:39.868Z,3.90
2018-03-30T18:22:08.461Z,12.10
2018-03-30T18:24:36.221Z,5.57
2018-03-30T18:27:03.964Z,2.50
2018-03-30T18:29:31.740Z,3.63
2018-03-30T18:31:59.505Z,2.37
2018-03-30T18:34:27.253Z,4.73
2018-03-30T18:36:55.805Z,2.70
2018-03-30T18:39:23.539Z,3.20
2018-03-30T18:41:51.457Z,4.37
2018-03-30T18:44:19.817Z,6.43
2018-03-30T18:46:47.567Z,4.80
2018-03-30T18:49:15.312Z,2.97
2018-03-30T18:51:43.081Z,4.33
2018-03-30T18:54:10.850Z,4.07
2018-03-30T18:56:38.600Z,4.23
2018-03-30T18:59:06.369Z,5.27
2018-03-30T19:01:34.113Z,6.67
2018-03-30T19:04:02.621Z,10.00
2018-03-30T19:06:30.449Z,5.00
2018-03-30T19:08:58.192Z,6.97
2018-03-30T19:11:25.934Z,6.60
2018-03-30T19:13:53.699Z,7.63
2018-03-30T19:16:21.444Z,8.83
2018-03-30T19:18:49.192Z,4.93
2018-03-30T19:21:16.956Z,7.37
2018-03-30T19:23:44.713Z,7.50
2018-03-30T19:26:12.472Z,8.83
2018-03-30T19:28:40.552Z,11.90
2018-03-30T19:31:09.067Z,4.43
2018-03-30T19:33:37.243Z,4.83
2018-03-30T19:36:05.004Z,7.53
2018-03-30T19:38:32.745Z,4.13
2018-03-30T19:41:00.488Z,3.83
2018-03-30T19:43:29.028Z,11.30
2018-03-30T19:45:56.813Z,6.10
2018-03-30T19:48:24.570Z,6.70
2018-03-30T19:50:52.376Z,5.33
2018-03-30T19:53:20.121Z,4.20
2018-03-30T19:55:47.870Z,2.80
2018-03-30T19:58:15.629Z,2.73
2018-03-30T20:00:43.379Z,3.10
2018-03-30T20:03:11.121Z,3.10
2018-03-30T20:05:38.896Z,11.10
2018-03-30T20:08:06.644Z,7.00
2018-03-30T20:10:34.394Z,2.70
2018-03-30T20:13:02.401Z,4.33
2018-03-30T20:15:30.227Z,4.13
2018-03-30T20:17:57.917Z,4.13
2018-03-30T20:20:25.685Z,3.97
2018-03-30T20:22:53.433Z,6.33
2018-03-30T20:25:21.941Z,3.93
2018-03-30T20:27:49.709Z,3.40
2018-03-30T20:30:17.724Z,2.57
2018-03-30T20:32:45.465Z,2.53
2018-03-30T20:35:13.816Z,3.43
2018-03-30T20:37:41.564Z,2.50
2018-03-30T20:40:09.305Z,5.27
2018-03-30T20:42:37.069Z,5.37
2018-03-30T20:45:04.813Z,5.63
2018-03-30T20:47:32.567Z,4.63
2018-03-30T20:50:00.534Z,4.20
2018-03-30T20:52:28.261Z,6.10
2018-03-30T20:54:56.005Z,3.30
2018-03-30T20:57:24.010Z,6.03
2018-03-30T20:59:52.957Z,3.50
2018-03-30T21:02:21.473Z,5.00
2018-03-30T21:04:49.282Z,7.77
2018-03-30T21:07:16.998Z,5.17
2018-03-30T21:09:44.740Z,4.73
2018-03-30T21:12:12.509Z,3.90
2018-03-30T21:14:40.343Z,3.40
2018-03-30T21:17:08.064Z,3.80
2018-03-30T21:19:36.353Z,3.47
2018-03-30T21:22:04.100Z,3.60
2018-03-30T21:24:32.600Z,2.80
2018-03-30T21:27:00.368Z,6.60
2018-03-30T21:29:28.109Z,3.03
2018-03-30T21:31:55.848Z,3.57
2018-03-30T21:34:23.633Z,2.37
2018-03-30T21:36:51.704Z,3.00
2018-03-30T21:39:19.741Z,3.23
2018-03-30T21:41:47.764Z,3.23
2018-03-30T21:44:15.517Z,3.17
2018-03-30T21:46:43.432Z,2.40
2018-03-30T21:49:11.177Z,4.13
2018-03-30T21:51:38.916Z,2.70
2018-03-30T21:54:06.665Z,3.90
2018-03-30T21:56:34.673Z,3.23
2018-03-30T21:59:02.417Z,5.33
2018-03-30T22:01:30.156Z,2.70
2018-03-30T22:03:58.881Z,3.57
2018-03-30T22:06:26.633Z,2.63
2018-03-30T22:08:54.385Z,3.80
2018-03-30T22:11:23.392Z,3.90
2018-03-30T22:13:51.260Z,2.67
2018-03-30T22:16:19.001Z,8.83
2018-03-30T22:18:46.765Z,2.93
2018-03-30T22:21:14.521Z,4.33
2018-03-30T22:23:42.261Z,2.97
2018-03-30T22:26:10.301Z,3.60
2018-03-30T22:28:38.057Z,3.40
2018-03-30T22:31:05.817Z,4.03
2018-03-30T22:33:33.584Z,3.10
2018-03-30T22:36:01.348Z,3.50
2018-03-30T22:38:29.526Z,3.00
2018-03-30T22:40:57.289Z,4.27
2018-03-30T22:43:25.037Z,5.40
2018-03-30T22:45:53.040Z,3.17
2018-03-30T22:48:20.941Z,4.17
2018-03-30T22:50:48.684Z,4.47
2018-03-30T22:53:16.456Z,4.53
2018-03-30T22:55:44.222Z,5.33
2018-03-30T22:58:11.960Z,6.63
2018-03-30T23:00:39.709Z,3.00
2018-03-30T23:03:07.696Z,4.50
2018-03-30T23:05:35.449Z,4.70
2018-03-30T23:08:03.188Z,5.37
2018-03-30T23:10:31.761Z,5.53
2018-03-30T23:12:59.509Z,3.60
2018-03-30T23:15:27.258Z,7.90
2018-03-30T23:17:55.022Z,4.47
2018-03-30T23:20:22.769Z,5.93
2018-03-30T23:22:50.517Z,6.20
2018-03-30T23:25:18.280Z,5.77
2018-03-30T23:27:46.024Z,6.27
2018-03-30T23:30:13.778Z,6.70
2018-03-30T23:32:42.114Z,5.73
2018-03-30T23:35:09.858Z,9.63
2018-03-30T23:37:37.618Z,7.37
2018-03-30T23:40:05.716Z,6.87
2018-03-30T23:42:33.471Z,6.77
2018-03-30T23:45:01.217Z,7.70
2018-03-30T23:47:29.755Z,8.07
2018-03-30T23:49:57.493Z,8.90
2018-03-30T23:52:25.245Z,8.10
2018-03-30T23:54:53.225Z,8.63
2018-03-30T23:57:20.965Z,7.50
2018-03-30T23:59:48.713Z,8.13
